sensor_id;sensor_type;location;lat;lon;timestamp;pressure;altitude;pressure_sealevel;temperature;humidity
29121;BME280;16191;49.548;8.658;2023-07-28T00:00:37;99706.00;;;17.64;100.00
29121;BME280;16191;49.548;8.658;2023-07-28T00:03:04;99705.25;;;17.62;100.00
29121;BME280;16191;49.548;8.658;2023-07-28T00:05:31;99713.16;;;17.62;100.00
29121;BME280;16191;49.548;8.658;2023-07-28T00:07:57;99706.09;;;17.63;100.00
29121;BME280;16191;49.548;8.658;2023-07-28T00:10:24;99705.34;;;17.61;100.00
29121;BME280;16191;49.548;8.658;2023-07-28T00:12:51;99709.56;;;17.63;100.00
29121;BME280;16191;49.548;8.658;2023-07-28T00:15:17;99712.13;;;17.65;100.00
29121;BME280;16191;49.548;8.658;2023-07-28T00:17:44;99709.56;;;17.63;100.00
29121;BME280;16191;49.548;8.658;2023-07-28T00:20:11;99706.72;;;17.66;100.00
29121;BME280;16191;49.548;8.658;2023-07-28T00:22:37;99701.66;;;17.63;100.00
29121;BME280;16191;49.548;8.658;2023-07-28T00:25:04;99712.13;;;17.65;100.00
29121;BME280;16191;49.548;8.658;2023-07-28T00:27:31;99702.41;;;17.65;100.00
29121;BME280;16191;49.548;8.658;2023-07-28T00:29:58;99710.53;;;17.62;100.00
29121;BME280;16191;49.548;8.658;2023-07-28T00:32:24;99709.78;;;17.60;100.00
29121;BME280;16191;49.548;8.658;2023-07-28T00:34:51;99693.72;;;17.63;100.00
29121;BME280;16191;49.548;8.658;2023-07-28T00:37:17;99706.19;;;17.61;100.00
29121;BME280;16191;49.548;8.658;2023-07-28T00:39:45;99698.81;;;17.66;100.00
29121;BME280;16191;49.548;8.658;2023-07-28T00:42:11;99701.44;;;17.66;100.00
29121;BME280;16191;49.548;8.658;2023-07-28T00:44:38;99700.59;;;17.66;100.00
29121;BME280;16191;49.548;8.658;2023-07-28T00:47:05;99698.81;;;17.66;100.00
29121;BME280;16191;49.548;8.658;2023-07-28T00:49:31;99706.72;;;17.66;100.00
29121;BME280;16191;49.548;8.658;2023-07-28T00:51:58;99698.91;;;17.65;100.00
29121;BME280;16191;49.548;8.658;2023-07-28T00:54:25;99698.09;;;17.64;100.00
29121;BME280;16191;49.548;8.658;2023-07-28T00:56:52;99699.97;;;17.62;100.00
29121;BME280;16191;49.548;8.658;2023-07-28T00:59:18;99701.66;;;17.63;100.00
29121;BME280;16191;49.548;8.658;2023-07-28T01:01:45;99698.16;;;17.63;100.00
29121;BME280;16191;49.548;8.658;2023-07-28T01:04:12;99694.81;;;17.61;100.00
29121;BME280;16191;49.548;8.658;2023-07-28T01:09:39;99686.56;;;17.65;100.00
29121;BME280;16191;49.548;8.658;2023-07-28T01:12:09;99688.97;;;17.68;100.00
29121;BME280;16191;49.548;8.658;2023-07-28T01:14:36;99684.13;;;17.62;100.00
29121;BME280;16191;49.548;8.658;2023-07-28T01:17:03;99680.53;;;17.63;100.00
29121;BME280;16191;49.548;8.658;2023-07-28T01:19:30;99691.31;;;17.60;100.00
29121;BME280;16191;49.548;8.658;2023-07-28T01:22:16;99694.69;;;17.62;100.00
29121;BME280;16191;49.548;8.658;2023-07-28T01:25:06;99688.81;;;17.59;100.00
29121;BME280;16191;49.548;8.658;2023-07-28T01:27:58;99710.88;;;17.58;100.00
29121;BME280;16191;49.548;8.658;2023-07-28T01:30:46;99707.41;;;17.57;100.00
29121;BME280;16191;49.548;8.658;2023-07-28T01:33:33;99704.75;;;17.57;100.00
29121;BME280;16191;49.548;8.658;2023-07-28T01:36:20;99710.63;;;17.61;100.00
29121;BME280;16191;49.548;8.658;2023-07-28T01:39:06;99716.03;;;17.59;100.00
29121;BME280;16191;49.548;8.658;2023-07-28T01:41:53;99717.59;;;17.51;100.00
29121;BME280;16191;49.548;8.658;2023-07-28T01:44:20;99718.19;;;17.54;100.00
29121;BME280;16191;49.548;8.658;2023-07-28T01:46:46;99718.78;;;17.58;100.00
29121;BME280;16191;49.548;8.658;2023-07-28T01:49:13;99709.06;;;17.58;100.00
29121;BME280;16191;49.548;8.658;2023-07-28T01:51:40;99716.16;;;17.58;100.00
29121;BME280;16191;49.548;8.658;2023-07-28T01:54:06;99715.19;;;17.59;100.00
29121;BME280;16191;49.548;8.658;2023-07-28T01:56:33;99711.59;;;17.60;100.00
29121;BME280;16191;49.548;8.658;2023-07-28T01:59:00;99711.38;;;17.52;100.00
29121;BME280;16191;49.548;8.658;2023-07-28T02:01:29;99731.53;;;17.53;100.00
29121;BME280;16191;49.548;8.658;2023-07-28T02:03:56;99721.19;;;17.50;100.00
29121;BME280;16191;49.548;8.658;2023-07-28T02:06:22;99726.94;;;17.55;100.00
29121;BME280;16191;49.548;8.658;2023-07-28T02:08:49;99732.09;;;17.56;100.00
29121;BME280;16191;49.548;8.658;2023-07-28T02:11:16;99732.34;;;17.53;100.00
29121;BME280;16191;49.548;8.658;2023-07-28T02:13:42;99728.72;;;17.54;100.00
29121;BME280;16191;49.548;8.658;2023-07-28T02:16:15;99720.59;;;17.57;100.00
29121;BME280;16191;49.548;8.658;2023-07-28T02:18:41;99727.09;;;17.53;100.00
29121;BME280;16191;49.548;8.658;2023-07-28T02:21:08;99737.97;;;17.48;100.00
29121;BME280;16191;49.548;8.658;2023-07-28T02:23:35;99734.28;;;17.51;100.00
29121;BME280;16191;49.548;8.658;2023-07-28T02:26:02;99725.75;;;17.47;100.00
29121;BME280;16191;49.548;8.658;2023-07-28T02:28:28;99715.09;;;17.49;100.00
29121;BME280;16191;49.548;8.658;2023-07-28T02:30:56;99724.28;;;17.55;100.00
29121;BME280;16191;49.548;8.658;2023-07-28T02:33:22;99720.13;;;17.52;100.00
29121;BME280;16191;49.548;8.658;2023-07-28T02:35:49;99733.78;;;17.46;100.00
29121;BME280;16191;49.548;8.658;2023-07-28T02:38:15;99726.59;;;17.48;100.00
29121;BME280;16191;49.548;8.658;2023-07-28T02:40:42;99720.97;;;17.53;100.00
29121;BME280;16191;49.548;8.658;2023-07-28T02:43:09;99725.97;;;17.56;100.00
29121;BME280;16191;49.548;8.658;2023-07-28T02:45:35;99725.41;;;17.52;100.00
29121;BME280;16191;49.548;8.658;2023-07-28T02:48:02;99724.69;;;17.50;100.00
29121;BME280;16191;49.548;8.658;2023-07-28T02:50:29;99730.91;;;17.49;100.00
29121;BME280;16191;49.548;8.658;2023-07-28T02:52:55;99731.88;;;17.48;100.00
29121;BME280;16191;49.548;8.658;2023-07-28T02:55:22;99723.84;;;17.50;100.00
29121;BME280;16191;49.548;8.658;2023-07-28T02:57:49;99726.47;;;17.50;100.00
29121;BME280;16191;49.548;8.658;2023-07-28T03:00:15;99716.66;;;17.52;100.00
29121;BME280;16191;49.548;8.658;2023-07-28T03:02:42;99736.78;;;17.53;100.00
29121;BME280;16191;49.548;8.658;2023-07-28T03:05:09;99732.22;;;17.55;100.00
29121;BME280;16191;49.548;8.658;2023-07-28T03:08:02;99723.72;;;17.51;100.00
29121;BME280;16191;49.548;8.658;2023-07-28T03:10:29;99727.44;;;17.48;100.00
29121;BME280;16191;49.548;8.658;2023-07-28T03:12:56;99730.19;;;17.47;100.00
29121;BME280;16191;49.548;8.658;2023-07-28T03:15:22;99727.56;;;17.47;100.00
29121;BME280;16191;49.548;8.658;2023-07-28T03:17:50;99720.00;;;17.42;100.00
29121;BME280;16191;49.548;8.658;2023-07-28T03:20:17;99733.78;;;17.46;100.00
29121;BME280;16191;49.548;8.658;2023-07-28T03:22:43;99723.00;;;17.49;100.00
29121;BME280;16191;49.548;8.658;2023-07-28T03:25:11;99732.47;;;17.52;100.00
29121;BME280;16191;49.548;8.658;2023-07-28T03:27:38;99723.84;;;17.50;100.00
29121;BME280;16191;49.548;8.658;2023-07-28T03:30:05;99713.06;;;17.53;100.00
29121;BME280;16191;49.548;8.658;2023-07-28T03:32:38;99716.53;;;17.53;100.00
29121;BME280;16191;49.548;8.658;2023-07-28T03:35:05;99719.41;;;17.50;100.00
29121;BME280;16191;49.548;8.658;2023-07-28T03:37:37;99715.53;;;17.54;100.00
29121;BME280;16191;49.548;8.658;2023-07-28T03:40:04;99709.91;;;17.59;100.00
29121;BME280;16191;49.548;8.658;2023-07-28T03:42:39;99706.44;;;17.58;100.00
29121;BME280;16191;49.548;8.658;2023-07-28T03:45:06;99706.56;;;17.57;100.00
29121;BME280;16191;49.548;8.658;2023-07-28T03:47:33;99714.59;;;17.55;100.00
29121;BME280;16191;49.548;8.658;2023-07-28T03:49:59;99705.72;;;17.56;100.00
29121;BME280;16191;49.548;8.658;2023-07-28T03:52:26;99711.25;;;17.53;100.00
29121;BME280;16191;49.548;8.658;2023-07-28T03:54:52;99712.56;;;17.59;100.00
29121;BME280;16191;49.548;8.658;2023-07-28T03:57:19;99717.38;;;17.54;100.00
29121;BME280;16191;49.548;8.658;2023-07-28T03:59:46;99713.50;;;17.58;100.00
29121;BME280;16191;49.548;8.658;2023-07-28T04:02:13;99714.97;;;17.51;100.00
29121;BME280;16191;49.548;8.658;2023-07-28T04:04:39;99721.09;;;17.51;100.00
29121;BME280;16191;49.548;8.658;2023-07-28T04:07:07;99725.75;;;17.47;100.00
29121;BME280;16191;49.548;8.658;2023-07-28T04:09:33;99732.81;;;17.47;100.00
29121;BME280;16191;49.548;8.658;2023-07-28T04:12:00;99737.97;;;17.48;100.00
29121;BME280;16191;49.548;8.658;2023-07-28T04:14:26;99736.91;;;17.51;100.00
29121;BME280;16191;49.548;8.658;2023-07-28T04:16:53;99737.03;;;17.50;100.00
29121;BME280;16191;49.548;8.658;2023-07-28T04:19:20;99737.16;;;17.48;100.00
29121;BME280;16191;49.548;8.658;2023-07-28T04:21:46;99735.97;;;17.52;100.00
29121;BME280;16191;49.548;8.658;2023-07-28T04:24:13;99733.44;;;17.51;100.00
29121;BME280;16191;49.548;8.658;2023-07-28T04:26:46;99740.00;;;17.56;100.00
29121;BME280;16191;49.548;8.658;2023-07-28T04:29:16;99734.84;;;17.55;100.00
29121;BME280;16191;49.548;8.658;2023-07-28T04:31:42;99738.22;;;17.57;100.00
29121;BME280;16191;49.548;8.658;2023-07-28T04:34:12;99735.47;;;17.58;100.00
29121;BME280;16191;49.548;8.658;2023-07-28T04:37:02;99734.50;;;17.59;100.00
29121;BME280;16191;49.548;8.658;2023-07-28T04:39:40;99738.81;;;17.60;100.00
29121;BME280;16191;49.548;8.658;2023-07-28T04:42:07;99739.06;;;17.57;100.00
29121;BME280;16191;49.548;8.658;2023-07-28T04:44:38;99741.56;;;17.59;100.00
29121;BME280;16191;49.548;8.658;2023-07-28T04:47:06;99745.88;;;17.60;100.00
29121;BME280;16191;49.548;8.658;2023-07-28T04:49:32;99748.75;;;17.57;100.00
29121;BME280;16191;49.548;8.658;2023-07-28T04:52:08;99754.88;;;17.57;100.00
29121;BME280;16191;49.548;8.658;2023-07-28T04:57:52;99751.78;;;17.52;100.00
29121;BME280;16191;49.548;8.658;2023-07-28T05:00:21;99761.13;;;17.56;100.00
29121;BME280;16191;49.548;8.658;2023-07-28T05:02:49;99756.34;;;17.50;100.00
29121;BME280;16191;49.548;8.658;2023-07-28T05:05:17;99757.91;;;17.53;100.00
29121;BME280;16191;49.548;8.658;2023-07-28T05:07:44;99759.19;;;17.47;100.00
29121;BME280;16191;49.548;8.658;2023-07-28T05:10:13;99761.84;;;17.47;100.00
29121;BME280;16191;49.548;8.658;2023-07-28T05:12:40;99771.56;;;17.46;100.00
29121;BME280;16191;49.548;8.658;2023-07-28T05:15:07;99776.59;;;17.50;100.00
29121;BME280;16191;49.548;8.658;2023-07-28T05:17:38;99774.06;;;17.48;100.00
29121;BME280;16191;49.548;8.658;2023-07-28T05:20:24;99778.84;;;17.54;100.00
29121;BME280;16191;49.548;8.658;2023-07-28T05:23:06;99774.56;;;17.53;100.00
29121;BME280;16191;49.548;8.658;2023-07-28T05:25:33;99770.94;;;17.54;100.00
29121;BME280;16191;49.548;8.658;2023-07-28T05:28:00;99774.91;;;17.60;100.00
29121;BME280;16191;49.548;8.658;2023-07-28T05:30:28;99768.06;;;17.57;100.00
29121;BME280;16191;49.548;8.658;2023-07-28T05:32:57;99773.97;;;17.61;100.00
29121;BME280;16191;49.548;8.658;2023-07-28T05:35:30;99777.97;;;17.66;100.00
29121;BME280;16191;49.548;8.658;2023-07-28T05:37:57;99781.31;;;17.68;100.00
29121;BME280;16191;49.548;8.658;2023-07-28T05:40:24;99773.28;;;17.70;100.00
29121;BME280;16191;49.548;8.658;2023-07-28T05:42:51;99784.19;;;17.76;100.00
29121;BME280;16191;49.548;8.658;2023-07-28T05:45:17;99782.66;;;17.74;100.00
29121;BME280;16191;49.548;8.658;2023-07-28T05:47:44;99783.50;;;17.74;100.00
29121;BME280;16191;49.548;8.658;2023-07-28T05:50:11;99783.34;;;17.76;100.00
29121;BME280;16191;49.548;8.658;2023-07-28T05:52:38;99779.06;;;17.75;100.00
29121;BME280;16191;49.548;8.658;2023-07-28T05:55:05;99780.72;;;17.76;100.00
29121;BME280;16191;49.548;8.658;2023-07-28T05:57:32;99784.56;;;17.83;100.00
29121;BME280;16191;49.548;8.658;2023-07-28T06:00:02;99786.00;;;17.87;100.00
29121;BME280;16191;49.548;8.658;2023-07-28T06:02:39;99794.16;;;17.84;100.00
29121;BME280;16191;49.548;8.658;2023-07-28T06:05:08;99789.84;;;17.83;100.00
29121;BME280;16191;49.548;8.658;2023-07-28T06:07:35;99797.75;;;17.83;100.00
29121;BME280;16191;49.548;8.658;2023-07-28T06:10:01;99801.00;;;17.87;100.00
29121;BME280;16191;49.548;8.658;2023-07-28T06:12:29;99804.25;;;17.90;100.00
29121;BME280;16191;49.548;8.658;2023-07-28T06:14:56;99809.41;;;17.92;100.00
29121;BME280;16191;49.548;8.658;2023-07-28T06:17:23;99805.09;;;17.91;100.00
29121;BME280;16191;49.548;8.658;2023-07-28T06:19:49;99809.91;;;17.97;100.00
29121;BME280;16191;49.548;8.658;2023-07-28T06:22:16;99815.41;;;17.94;100.00
29121;BME280;16191;49.548;8.658;2023-07-28T06:24:44;99814.56;;;17.93;100.00
29121;BME280;16191;49.548;8.658;2023-07-28T06:27:11;99815.28;;;17.95;100.00
29121;BME280;16191;49.548;8.658;2023-07-28T06:29:39;99820.69;;;17.94;100.00
29121;BME280;16191;49.548;8.658;2023-07-28T06:32:06;99824.53;;;17.90;100.00
29121;BME280;16191;49.548;8.658;2023-07-28T06:34:34;99838.44;;;17.92;100.00
29121;BME280;16191;49.548;8.658;2023-07-28T06:37:00;99842.75;;;17.93;100.00
29121;BME280;16191;49.548;8.658;2023-07-28T06:39:27;99846.13;;;17.95;100.00
29121;BME280;16191;49.548;8.658;2023-07-28T06:41:55;99846.34;;;17.92;100.00
29121;BME280;16191;49.548;8.658;2023-07-28T06:44:21;99859.31;;;17.95;100.00
29121;BME280;16191;49.548;8.658;2023-07-28T06:46:49;99852.59;;;18.02;100.00
29121;BME280;16191;49.548;8.658;2023-07-28T06:49:16;99858.22;;;17.97;100.00
29121;BME280;16191;49.548;8.658;2023-07-28T06:51:43;99858.00;;;18.00;100.00
29121;BME280;16191;49.548;8.658;2023-07-28T06:54:10;99859.78;;;18.00;100.00
29121;BME280;16191;49.548;8.658;2023-07-28T06:56:39;99860.88;;;17.97;100.00
29121;BME280;16191;49.548;8.658;2023-07-28T06:59:07;99858.72;;;18.02;100.00
29121;BME280;16191;49.548;8.658;2023-07-28T07:01:43;99869.16;;;18.04;100.00
29121;BME280;16191;49.548;8.658;2023-07-28T07:04:10;99867.13;;;18.07;100.00
29121;BME280;16191;49.548;8.658;2023-07-28T07:06:37;99865.91;;;18.00;100.00
29121;BME280;16191;49.548;8.658;2023-07-28T07:09:05;99860.63;;;18.00;100.00
29121;BME280;16191;49.548;8.658;2023-07-28T07:11:33;99872.75;;;18.03;100.00
29121;BME280;16191;49.548;8.658;2023-07-28T07:14:00;99876.72;;;18.08;100.00
29121;BME280;16191;49.548;8.658;2023-07-28T07:16:27;99880.56;;;18.04;100.00
29121;BME280;16191;49.548;8.658;2023-07-28T07:18:54;99883.91;;;18.06;100.00
29121;BME280;16191;49.548;8.658;2023-07-28T07:21:20;99885.59;;;18.07;100.00
29121;BME280;16191;49.548;8.658;2023-07-28T07:23:47;99892.34;;;18.11;100.00
29121;BME280;16191;49.548;8.658;2023-07-28T07:26:26;99886.78;;;18.03;100.00
29121;BME280;16191;49.548;8.658;2023-07-28T07:28:52;99890.28;;;18.04;100.00
29121;BME280;16191;49.548;8.658;2023-07-28T07:31:19;99898.47;;;18.12;100.00
29121;BME280;16191;49.548;8.658;2023-07-28T07:33:46;99899.75;;;18.06;100.00
29121;BME280;16191;49.548;8.658;2023-07-28T07:36:18;99892.94;;;18.15;100.00
29121;BME280;16191;49.548;8.658;2023-07-28T07:38:45;99901.34;;;18.31;100.00
29121;BME280;16191;49.548;8.658;2023-07-28T07:41:13;99898.34;;;18.25;100.00
29121;BME280;16191;49.548;8.658;2023-07-28T07:43:47;99891.72;;;18.30;100.00
29121;BME280;16191;49.548;8.658;2023-07-28T07:46:14;99893.41;;;18.31;100.00
29121;BME280;16191;49.548;8.658;2023-07-28T07:48:41;99899.91;;;18.38;100.00
29121;BME280;16191;49.548;8.658;2023-07-28T07:51:08;99899.78;;;18.40;100.00
29121;BME280;16191;49.548;8.658;2023-07-28T07:53:35;99890.16;;;18.50;100.00
29121;BME280;16191;49.548;8.658;2023-07-28T07:56:06;99886.84;;;18.59;100.00
29121;BME280;16191;49.548;8.658;2023-07-28T07:58:33;99892.69;;;18.63;100.00
29121;BME280;16191;49.548;8.658;2023-07-28T08:01:00;99894.97;;;18.67;100.00
29121;BME280;16191;49.548;8.658;2023-07-28T08:03:27;99902.06;;;18.67;100.00
29121;BME280;16191;49.548;8.658;2023-07-28T08:05:54;99900.03;;;18.70;100.00
29121;BME280;16191;49.548;8.658;2023-07-28T08:08:21;99899.75;;;18.84;100.00
29121;BME280;16191;49.548;8.658;2023-07-28T08:10:49;99899.75;;;18.84;100.00
29121;BME280;16191;49.548;8.658;2023-07-28T08:13:16;99889.66;;;18.90;100.00
29121;BME280;16191;49.548;8.658;2023-07-28T08:15:43;99882.78;;;18.98;100.00
29121;BME280;16191;49.548;8.658;2023-07-28T08:18:14;99883.44;;;19.11;100.00
29121;BME280;16191;49.548;8.658;2023-07-28T08:20:41;99877.66;;;19.17;100.00
29121;BME280;16191;49.548;8.658;2023-07-28T08:23:11;99873.34;;;19.16;100.00
29121;BME280;16191;49.548;8.658;2023-07-28T08:25:37;99871.16;;;19.22;100.00
29121;BME280;16191;49.548;8.658;2023-07-28T08:28:04;99868.16;;;19.47;100.00
29121;BME280;16191;49.548;8.658;2023-07-28T08:30:31;99867.78;;;19.51;100.00
29121;BME280;16191;49.548;8.658;2023-07-28T08:32:59;99863.28;;;19.63;100.00
29121;BME280;16191;49.548;8.658;2023-07-28T08:35:26;99869.91;;;19.78;100.00
29121;BME280;16191;49.548;8.658;2023-07-28T08:37:52;99857.91;;;19.74;100.00
29121;BME280;16191;49.548;8.658;2023-07-28T08:40:19;99855.72;;;19.79;100.00
29121;BME280;16191;49.548;8.658;2023-07-28T08:42:46;99860.75;;;19.82;100.00
29121;BME280;16191;49.548;8.658;2023-07-28T08:45:13;99856.63;;;19.90;100.00
29121;BME280;16191;49.548;8.658;2023-07-28T08:47:40;99854.38;;;19.95;100.00
29121;BME280;16191;49.548;8.658;2023-07-28T08:50:07;99859.50;;;20.17;100.00
29121;BME280;16191;49.548;8.658;2023-07-28T08:52:34;99854.72;;;20.01;100.00
29121;BME280;16191;49.548;8.658;2023-07-28T08:55:00;99859.63;;;20.06;100.00
29121;BME280;16191;49.548;8.658;2023-07-28T08:57:27;99854.78;;;20.11;100.00
29121;BME280;16191;49.548;8.658;2023-07-28T08:59:54;99850.84;;;20.15;100.00
29121;BME280;16191;49.548;8.658;2023-07-28T09:02:21;99856.72;;;20.39;100.00
29121;BME280;16191;49.548;8.658;2023-07-28T09:04:48;99853.34;;;20.77;100.00
29121;BME280;16191;49.548;8.658;2023-07-28T09:07:16;99850.91;;;20.55;100.00
29121;BME280;16191;49.548;8.658;2023-07-28T09:09:42;99838.63;;;20.64;100.00
29121;BME280;16191;49.548;8.658;2023-07-28T09:12:10;99835.72;;;20.67;100.00
29121;BME280;16191;49.548;8.658;2023-07-28T09:14:38;99834.47;;;20.71;100.00
29121;BME280;16191;49.548;8.658;2023-07-28T09:17:09;99837.00;;;20.72;100.00
29121;BME280;16191;49.548;8.658;2023-07-28T09:19:53;99829.41;;;20.58;100.00
29121;BME280;16191;49.548;8.658;2023-07-28T09:22:21;99827.31;;;20.52;100.00
29121;BME280;16191;49.548;8.658;2023-07-28T09:24:49;99833.66;;;20.30;100.00
29121;BME280;16191;49.548;8.658;2023-07-28T09:27:25;99832.31;;;20.15;100.00
29121;BME280;16191;49.548;8.658;2023-07-28T09:29:53;99841.91;;;20.06;100.00
29121;BME280;16191;49.548;8.658;2023-07-28T09:32:29;99842.56;;;19.99;100.00
29121;BME280;16191;49.548;8.658;2023-07-28T09:35:10;99836.16;;;20.01;100.00
29121;BME280;16191;49.548;8.658;2023-07-28T09:37:40;99833.66;;;20.00;100.00
29121;BME280;16191;49.548;8.658;2023-07-28T09:40:15;99840.38;;;20.04;100.00
29121;BME280;16191;49.548;8.658;2023-07-28T09:42:44;99837.53;;;19.96;100.00
29121;BME280;16191;49.548;8.658;2023-07-28T09:45:12;99842.00;;;19.95;100.00
29121;BME280;16191;49.548;8.658;2023-07-28T09:47:58;99841.88;;;19.97;100.00
29121;BME280;16191;49.548;8.658;2023-07-28T09:50:27;99849.28;;;20.03;100.00
29121;BME280;16191;49.548;8.658;2023-07-28T09:53:02;99848.44;;;20.02;100.00
29121;BME280;16191;49.548;8.658;2023-07-28T09:55:30;99847.03;;;19.98;100.00
29121;BME280;16191;49.548;8.658;2023-07-28T09:58:03;99833.41;;;20.03;100.00
29121;BME280;16191;49.548;8.658;2023-07-28T10:00:31;99827.44;;;20.10;100.00
29121;BME280;16191;49.548;8.658;2023-07-28T10:02:58;99823.53;;;20.14;100.00
29121;BME280;16191;49.548;8.658;2023-07-28T10:05:25;99817.00;;;20.18;100.00
29121;BME280;16191;49.548;8.658;2023-07-28T10:07:53;99812.53;;;20.19;100.00
29121;BME280;16191;49.548;8.658;2023-07-28T10:10:20;99811.88;;;20.27;100.00
29121;BME280;16191;49.548;8.658;2023-07-28T10:12:49;99806.75;;;20.35;100.00
29121;BME280;16191;49.548;8.658;2023-07-28T10:15:20;99807.75;;;20.43;100.00
29121;BME280;16191;49.548;8.658;2023-07-28T10:17:55;99815.63;;;20.55;100.00
29121;BME280;16191;49.548;8.658;2023-07-28T10:23:07;99795.41;;;20.92;100.00
29121;BME280;16191;49.548;8.658;2023-07-28T10:25:38;99799.59;;;21.04;100.00
29121;BME280;16191;49.548;8.658;2023-07-28T10:28:06;99798.34;;;21.08;100.00
29121;BME280;16191;49.548;8.658;2023-07-28T10:30:38;99806.28;;;21.08;100.00
29121;BME280;16191;49.548;8.658;2023-07-28T10:33:05;99801.56;;;21.12;100.00
29121;BME280;16191;49.548;8.658;2023-07-28T10:35:32;99805.19;;;21.11;100.00
29121;BME280;16191;49.548;8.658;2023-07-28T10:38:30;99803.22;;;21.03;100.00
29121;BME280;16191;49.548;8.658;2023-07-28T10:41:15;99813.72;;;20.95;100.00
29121;BME280;16191;49.548;8.658;2023-07-28T10:43:44;99796.53;;;20.90;100.00
29121;BME280;16191;49.548;8.658;2023-07-28T10:46:15;99802.41;;;20.93;100.00
29121;BME280;16191;49.548;8.658;2023-07-28T10:48:44;99799.34;;;20.98;100.00
29121;BME280;16191;49.548;8.658;2023-07-28T10:51:12;99805.72;;;21.05;100.00
29121;BME280;16191;49.548;8.658;2023-07-28T10:53:45;99803.38;;;21.11;100.00
29121;BME280;16191;49.548;8.658;2023-07-28T10:56:13;99805.75;;;21.14;100.00
29121;BME280;16191;49.548;8.658;2023-07-28T10:58:40;99800.03;;;21.19;100.00
29121;BME280;16191;49.548;8.658;2023-07-28T11:01:06;99806.72;;;21.33;100.00
29121;BME280;16191;49.548;8.658;2023-07-28T11:03:33;99800.03;;;21.38;100.00
29121;BME280;16191;49.548;8.658;2023-07-28T11:06:00;99803.53;;;21.39;100.00
29121;BME280;16191;49.548;8.658;2023-07-28T11:08:27;99794.28;;;21.43;100.00
29121;BME280;16191;49.548;8.658;2023-07-28T11:10:54;99794.44;;;21.41;100.00
29121;BME280;16191;49.548;8.658;2023-07-28T11:13:21;99797.63;;;21.45;100.00
29121;BME280;16191;49.548;8.658;2023-07-28T11:16:07;99800.44;;;21.43;100.00
29121;BME280;16191;49.548;8.658;2023-07-28T11:18:34;99802.38;;;21.51;100.00
29121;BME280;16191;49.548;8.658;2023-07-28T11:21:01;99802.78;;;21.56;100.00
29121;BME280;16191;49.548;8.658;2023-07-28T11:23:27;99795.50;;;21.58;100.00
29121;BME280;16191;49.548;8.658;2023-07-28T11:25:55;99801.53;;;21.60;100.00
29121;BME280;16191;49.548;8.658;2023-07-28T11:28:22;99805.72;;;21.63;100.00
29121;BME280;16191;49.548;8.658;2023-07-28T11:30:48;99805.38;;;21.75;100.00
29121;BME280;16191;49.548;8.658;2023-07-28T11:33:15;99799.50;;;21.81;100.00
29121;BME280;16191;49.548;8.658;2023-07-28T11:35:44;99800.72;;;21.87;100.00
29121;BME280;16191;49.548;8.658;2023-07-28T11:38:12;99799.38;;;21.73;100.00
29121;BME280;16191;49.548;8.658;2023-07-28T11:40:41;99800.47;;;21.80;100.00
29121;BME280;16191;49.548;8.658;2023-07-28T11:43:07;99802.72;;;21.75;100.00
29121;BME280;16191;49.548;8.658;2023-07-28T11:45:34;99802.44;;;21.78;100.00
29121;BME280;16191;49.548;8.658;2023-07-28T11:48:03;99804.53;;;21.75;100.00
29121;BME280;16191;49.548;8.658;2023-07-28T11:50:36;99812.50;;;21.84;100.00
29121;BME280;16191;49.548;8.658;2023-07-28T11:53:04;99809.00;;;21.84;100.00
29121;BME280;16191;49.548;8.658;2023-07-28T11:55:32;99809.44;;;21.79;100.00
29121;BME280;16191;49.548;8.658;2023-07-28T11:58:00;99804.25;;;21.78;100.00
29121;BME280;16191;49.548;8.658;2023-07-28T12:00:29;99810.69;;;21.75;100.00
29121;BME280;16191;49.548;8.658;2023-07-28T12:03:07;99808.19;;;21.74;100.00
29121;BME280;16191;49.548;8.658;2023-07-28T12:05:38;99807.19;;;21.75;100.00
29121;BME280;16191;49.548;8.658;2023-07-28T12:08:33;99810.69;;;21.75;100.00
29121;BME280;16191;49.548;8.658;2023-07-28T12:11:00;99805.53;;;21.74;100.00
29121;BME280;16191;49.548;8.658;2023-07-28T12:13:30;99811.41;;;21.68;100.00
29121;BME280;16191;49.548;8.658;2023-07-28T12:15:58;99811.72;;;21.55;100.00
29121;BME280;16191;49.548;8.658;2023-07-28T12:18:30;99813.81;;;21.51;100.00
29121;BME280;16191;49.548;8.658;2023-07-28T12:21:00;99807.09;;;21.57;100.00
29121;BME280;16191;49.548;8.658;2023-07-28T12:23:27;99808.38;;;21.63;100.00
29121;BME280;16191;49.548;8.658;2023-07-28T12:25:57;99810.31;;;21.61;100.00
29121;BME280;16191;49.548;8.658;2023-07-28T12:28:25;99821.38;;;21.46;100.00
29121;BME280;16191;49.548;8.658;2023-07-28T12:30:52;99814.66;;;21.52;100.00
29121;BME280;16191;49.548;8.658;2023-07-28T12:33:22;99810.59;;;21.48;100.00
29121;BME280;16191;49.548;8.658;2023-07-28T12:35:50;99813.13;;;21.49;100.00
29121;BME280;16191;49.548;8.658;2023-07-28T12:38:18;99817.19;;;21.44;100.00
29121;BME280;16191;49.548;8.658;2023-07-28T12:40:48;99807.56;;;21.43;100.00
29121;BME280;16191;49.548;8.658;2023-07-28T12:43:17;99810.78;;;21.37;100.00
29121;BME280;16191;49.548;8.658;2023-07-28T12:45:47;99811.47;;;21.39;100.00
29121;BME280;16191;49.548;8.658;2023-07-28T12:48:17;99815.13;;;21.38;100.00
29121;BME280;16191;49.548;8.658;2023-07-28T12:50:47;99814.69;;;21.42;100.00
29121;BME280;16191;49.548;8.658;2023-07-28T12:53:14;99817.75;;;21.47;100.00
29121;BME280;16191;49.548;8.658;2023-07-28T12:55:47;99822.78;;;21.41;100.00
29121;BME280;16191;49.548;8.658;2023-07-28T12:58:16;99817.78;;;21.38;100.00
29121;BME280;16191;49.548;8.658;2023-07-28T13:00:46;99825.31;;;21.33;100.00
29121;BME280;16191;49.548;8.658;2023-07-28T13:03:16;99827.13;;;21.32;100.00
29121;BME280;16191;49.548;8.658;2023-07-28T13:05:43;99829.78;;;21.32;100.00
29121;BME280;16191;49.548;8.658;2023-07-28T13:08:10;99826.00;;;21.35;100.00